Time;durP1;ratioP1;P1;durP2;ratioP2;P2;SDS_P1;SDS_P2;PMS_P1;PMS_P2;Temp;Humidity;BMP_temperature;BMP_pressure;BME280_temperature;BME280_humidity;BME280_pressure;Samples;Min_cycle;Max_cycle;Signal;HPM_P1;HPM_P2
2022/06/01 00:02:26;;;;;;;4.97;2.10;;;;;;;9.63;65.37;100039.00;5019580;28;20045;-51
2022/06/01 00:04:54;;;;;;;4.80;2.35;;;;;;;9.61;64.65;100035.53;5018027;28;20050;-52
2022/06/01 00:07:23;;;;;;;5.25;2.65;;;;;;;9.58;64.70;100030.38;5011150;28;20409;-50
2022/06/01 00:09:49;;;;;;;8.70;2.08;;;;;;;9.55;64.52;100030.38;5013714;28;20111;-49
2022/06/01 00:12:16;;;;;;;4.40;2.20;;;;;;;9.51;65.22;100030.38;5012541;28;20046;-53
2022/06/01 00:14:43;;;;;;;6.45;2.35;;;;;;;9.49;65.14;100036.41;5006051;28;20517;-48
2022/06/01 00:17:09;;;;;;;4.47;2.20;;;;;;;9.45;64.70;100035.53;5005213;28;20208;-47
2022/06/01 00:19:36;;;;;;;3.15;1.70;;;;;;;9.42;65.23;100045.84;5001469;28;20096;-44
2022/06/01 00:22:11;;;;;;;6.13;2.20;;;;;;;9.38;65.20;100038.94;4997840;28;20050;-50
2022/06/01 00:24:39;;;;;;;5.57;2.53;;;;;;;9.34;65.42;100044.97;4995854;28;20521;-52
2022/06/01 00:27:06;;;;;;;5.65;2.15;;;;;;;9.29;65.29;100041.53;5008806;28;20509;-51
2022/06/01 00:29:34;;;;;;;5.38;2.30;;;;;;;9.25;64.81;100048.41;4997096;28;20132;-50
2022/06/01 00:32:00;;;;;;;5.20;2.28;;;;;;;9.22;65.54;100054.44;4995551;28;20399;-49
2022/06/01 00:34:27;;;;;;;6.05;2.95;;;;;;;9.20;65.14;100045.81;5006953;28;20450;-53
2022/06/01 00:36:54;;;;;;;5.20;2.55;;;;;;;9.19;65.72;100048.41;5001059;28;20050;-53
2022/06/01 00:39:20;;;;;;;4.90;2.22;;;;;;;9.18;65.14;100047.53;4995883;28;20092;-45
2022/06/01 00:41:47;;;;;;;5.50;2.00;;;;;;;9.17;65.65;100050.97;4998875;28;20050;-49
2022/06/01 00:44:14;;;;;;;5.13;1.98;;;;;;;9.15;65.62;100047.50;5005434;28;20678;-46
2022/06/01 00:46:41;;;;;;;4.70;2.33;;;;;;;9.15;66.04;100050.09;5000780;28;20054;-53
2022/06/01 00:49:16;;;;;;;4.90;2.10;;;;;;;9.12;65.70;100053.53;4997169;28;20126;-49
2022/06/01 00:51:44;;;;;;;6.85;2.28;;;;;;;9.11;64.98;100050.94;4998942;28;20049;-50
2022/06/01 00:54:12;;;;;;;6.25;2.05;;;;;;;9.11;65.24;100056.09;4998044;28;20112;-50
2022/06/01 00:56:44;;;;;;;4.88;1.95;;;;;;;9.07;65.80;100054.38;5000716;28;20520;-48
2022/06/01 00:59:17;;;;;;;6.25;2.53;;;;;;;9.03;66.08;100048.34;5000069;28;20099;-54
2022/06/01 01:01:44;;;;;;;5.72;2.28;;;;;;;8.98;65.80;100045.75;4995713;28;20042;-54
2022/06/01 01:04:11;;;;;;;5.13;2.25;;;;;;;8.95;65.42;100045.72;5004592;28;20058;-48
2022/06/01 01:06:40;;;;;;;5.60;3.92;;;;;;;8.94;66.03;100044.00;4995472;28;20113;-50
2022/06/01 01:09:08;;;;;;;5.65;2.30;;;;;;;8.92;66.08;100044.84;4979088;28;20105;-49
2022/06/01 01:11:57;;;;;;;5.28;2.65;;;;;;;8.88;66.22;100043.97;5000025;28;20658;-47
2022/06/01 01:14:29;;;;;;;5.05;2.75;;;;;;;8.85;65.45;100033.66;5000270;28;20054;-51
2022/06/01 01:16:57;;;;;;;6.70;2.65;;;;;;;8.84;65.18;100042.22;4995877;28;20101;-49
2022/06/01 01:19:32;;;;;;;6.13;2.83;;;;;;;8.82;65.81;100038.78;5001467;28;20053;-49
2022/06/01 01:27:43;;;;;;;7.63;4.03;;;;;;;8.79;66.76;100033.59;5105604;27;20410;-50
2022/06/01 01:30:39;;;;;;;6.30;3.28;;;;;;;8.74;66.36;100038.75;5058383;28;20423;-53
2022/06/01 01:33:20;;;;;;;5.72;4.13;;;;;;;8.74;66.32;100031.88;5095668;28;20475;-45
2022/06/01 01:35:52;;;;;;;5.63;3.60;;;;;;;8.77;65.99;100027.56;5103283;28;20058;-53
2022/06/01 01:41:30;;;;;;;8.57;2.67;;;;;;;8.73;66.86;100025.00;5023205;27;20425;-52
2022/06/01 01:44:05;;;;;;;6.55;2.45;;;;;;;8.73;66.23;100030.16;5007844;28;20095;-48
2022/06/01 01:46:32;;;;;;;5.18;2.63;;;;;;;8.71;66.09;100023.22;5009467;28;20050;-47
2022/06/01 01:48:59;;;;;;;5.47;2.60;;;;;;;8.71;65.99;100031.84;5011720;28;20050;-47
2022/06/01 01:51:28;;;;;;;6.15;2.63;;;;;;;8.69;66.31;100030.13;5011159;28;20054;-45
2022/06/01 01:53:55;;;;;;;5.80;2.97;;;;;;;8.66;66.15;100018.06;5011271;28;20054;-46
2022/06/01 02:02:04;;;;;;;5.93;3.28;;;;;;;8.83;66.32;100025.88;4998282;28;20416;-45
2022/06/01 02:07:30;;;;;;;4.53;2.22;;;;;;;8.72;66.90;100018.06;4977632;28;20042;-44
2022/06/01 02:12:46;;;;;;;6.35;2.50;;;;;;;8.67;66.36;100018.91;4986994;28;20058;-51
2022/06/01 02:15:20;;;;;;;5.57;2.75;;;;;;;8.66;65.99;100023.22;5001733;28;20050;-50
2022/06/01 02:17:50;;;;;;;4.65;2.47;;;;;;;8.64;66.55;100019.75;4999690;28;20049;-47
2022/06/01 02:20:40;;;;;;;5.15;2.58;;;;;;;8.64;65.95;100024.09;5004840;28;20494;-51
2022/06/01 02:23:11;;;;;;;6.70;3.92;;;;;;;8.60;67.29;100018.03;5026532;28;20064;-52
2022/06/01 02:25:40;;;;;;;7.32;2.65;;;;;;;8.58;66.56;100015.44;5007327;28;20042;-48
2022/06/01 02:28:07;;;;;;;8.02;3.22;;;;;;;8.55;66.37;100019.72;5007895;28;20045;-47
2022/06/01 02:30:39;;;;;;;6.10;2.97;;;;;;;8.53;67.17;100017.13;5000754;28;20046;-47
2022/06/01 02:33:09;;;;;;;5.82;2.83;;;;;;;8.49;66.81;100016.22;5009112;28;20083;-49
2022/06/01 02:35:39;;;;;;;;;;;;;;;8.35;66.74;100012.72;5010244;28;20406;-48
2022/06/01 02:38:10;;;;;;;5.38;2.58;;;;;;;8.42;67.51;100014.47;5007557;28;19995;-49
2022/06/01 02:40:37;;;;;;;5.53;2.70;;;;;;;8.42;66.67;100017.06;5012755;28;20052;-47
2022/06/01 02:43:05;;;;;;;7.18;3.22;;;;;;;8.41;67.62;100017.03;5008186;28;20054;-47
2022/06/01 02:45:32;;;;;;;6.20;3.10;;;;;;;8.42;66.48;100027.38;5004359;28;20050;-49
2022/06/01 02:48:01;;;;;;;4.72;2.45;;;;;;;8.41;67.42;100023.06;5014817;28;20050;-45
2022/06/01 02:50:30;;;;;;;5.43;2.55;;;;;;;8.40;66.73;100020.47;5004630;28;20046;-47
2022/06/01 02:52:57;;;;;;;6.00;3.15;;;;;;;8.38;65.98;100017.91;4999319;28;20054;-45
2022/06/01 02:55:25;;;;;;;8.07;3.00;;;;;;;8.37;67.02;100021.31;5010578;28;20105;-46
2022/06/01 02:57:52;;;;;;;5.82;2.60;;;;;;;8.36;67.15;100019.59;5008757;28;20099;-44
2022/06/01 03:00:23;;;;;;;6.57;3.25;;;;;;;8.35;66.39;100020.44;5038759;28;20105;-45
2022/06/01 03:02:52;;;;;;;6.18;2.75;;;;;;;8.33;67.18;100016.97;5005703;28;20049;-55
2022/06/01 03:05:22;;;;;;;6.57;2.97;;;;;;;8.32;66.63;100025.59;5003454;28;20499;-54
2022/06/01 03:07:49;;;;;;;7.72;3.38;;;;;;;8.31;66.72;100026.44;5007710;28;20072;-48
2022/06/01 03:10:16;;;;;;;7.20;3.28;;;;;;;8.32;66.48;100028.16;5038127;28;20049;-46
2022/06/01 03:12:43;;;;;;;6.97;3.30;;;;;;;8.29;66.61;100022.97;4987795;28;20572;-47
2022/06/01 03:15:14;;;;;;;6.68;2.85;;;;;;;8.30;67.97;100027.28;4995155;28;20104;-50
2022/06/01 03:17:40;;;;;;;7.47;3.85;;;;;;;8.30;67.89;100033.31;4989695;28;20046;-49
2022/06/01 03:20:08;;;;;;;6.45;3.55;;;;;;;8.29;67.48;100038.47;4996088;28;20049;-47
2022/06/01 03:22:36;;;;;;;6.18;3.45;;;;;;;8.29;67.00;100038.47;4994831;28;20085;-47
2022/06/01 03:25:06;;;;;;;5.57;3.03;;;;;;;8.29;67.49;100038.47;4995129;28;20058;-48
2022/06/01 03:27:34;;;;;;;7.30;3.42;;;;;;;8.28;67.31;100047.91;4990751;28;20050;-52
2022/06/01 03:30:01;;;;;;;6.32;3.67;;;;;;;8.29;67.71;100046.22;5019917;28;20046;-48
2022/06/01 03:32:27;;;;;;;6.43;3.50;;;;;;;8.27;66.84;100050.50;4986980;28;20050;-45
2022/06/01 03:34:54;;;;;;;8.18;3.35;;;;;;;8.26;66.74;100048.75;4991626;28;20096;-45
2022/06/01 03:37:21;;;;;;;6.68;3.08;;;;;;;8.25;68.11;100053.06;4995706;28;20046;-48
2022/06/01 03:39:47;;;;;;;7.47;3.72;;;;;;;8.27;67.09;100053.94;4996082;28;20053;-45
2022/06/01 03:42:14;;;;;;;8.45;3.35;;;;;;;8.27;68.59;100046.19;4992869;28;20077;-48
2022/06/01 03:47:27;;;;;;;5.93;3.47;;;;;;;8.28;67.60;100054.81;4987038;28;20100;-49
2022/06/01 03:49:54;;;;;;;7.32;3.78;;;;;;;8.27;68.06;100056.53;4993271;28;20509;-43
2022/06/01 03:52:21;;;;;;;6.32;2.97;;;;;;;8.28;67.31;100057.41;4993981;28;20145;-51
2022/06/01 03:54:47;;;;;;;6.85;3.17;;;;;;;8.30;68.45;100055.66;4994147;28;20053;-48
2022/06/01 03:57:14;;;;;;;7.80;3.83;;;;;;;8.31;68.21;100052.25;4996924;28;20486;-47
2022/06/01 03:59:41;;;;;;;8.20;3.72;;;;;;;8.30;67.23;100050.50;4995206;28;20051;-48
2022/06/01 04:02:07;;;;;;;6.57;3.35;;;;;;;8.31;67.85;100052.25;4992413;28;20051;-44
2022/06/01 04:04:36;;;;;;;7.43;3.50;;;;;;;8.33;67.81;100047.94;4996383;28;20081;-51
2022/06/01 04:07:03;;;;;;;6.80;3.00;;;;;;;8.37;68.70;100054.84;5035267;28;20096;-51
2022/06/01 04:09:30;;;;;;;8.52;3.83;;;;;;;8.39;68.37;100055.75;4994856;28;20042;-50
2022/06/01 04:11:58;;;;;;;8.48;3.40;;;;;;;8.42;67.96;100053.19;4997519;28;20043;-49
2022/06/01 04:14:25;;;;;;;10.18;4.30;;;;;;;8.47;68.06;100054.06;4993516;28;20047;-52
2022/06/01 04:16:53;;;;;;;8.50;3.80;;;;;;;8.52;68.47;100055.81;5010992;28;20094;-47
2022/06/01 04:19:19;;;;;;;6.63;3.05;;;;;;;8.55;69.00;100061.88;4994901;28;20056;-50
2022/06/01 04:21:49;;;;;;;9.43;3.65;;;;;;;8.59;68.20;100055.91;5001580;28;20445;-49
2022/06/01 04:24:19;;;;;;;11.55;4.07;;;;;;;8.64;67.97;100061.06;5001031;28;20050;-52
2022/06/01 04:26:46;;;;;;;7.57;3.58;;;;;;;8.70;68.00;100061.13;4992859;28;20085;-48
2022/06/01 04:29:15;;;;;;;7.00;3.10;;;;;;;8.73;68.71;100055.97;4995643;28;20410;-48
2022/06/01 04:31:42;;;;;;;7.43;3.70;;;;;;;8.78;67.98;100058.56;4992687;28;20046;-48
2022/06/01 04:34:08;;;;;;;6.03;3.28;;;;;;;8.82;68.58;100073.22;5000441;28;20061;-51
2022/06/01 04:36:35;;;;;;;8.93;3.60;;;;;;;8.88;69.04;100064.63;4991050;28;20054;-47
2022/06/01 04:39:03;;;;;;;5.18;2.90;;;;;;;8.94;67.92;100068.97;4996578;28;20534;-49
2022/06/01 04:41:30;;;;;;;7.60;3.47;;;;;;;8.98;68.48;100065.53;4993755;28;20038;-47
2022/06/01 04:43:56;;;;;;;6.20;3.58;;;;;;;9.04;68.16;100070.72;4998241;28;20058;-44
2022/06/01 04:46:23;;;;;;;5.95;2.97;;;;;;;9.10;68.42;100069.91;4982533;28;20141;-47
2022/06/01 04:48:51;;;;;;;6.80;3.05;;;;;;;9.17;68.42;100074.22;4991228;28;20060;-54
2022/06/01 04:51:17;;;;;;;6.07;3.30;;;;;;;9.22;68.85;100075.09;4985226;28;20055;-46
2022/06/01 04:53:44;;;;;;;5.18;3.13;;;;;;;9.26;68.54;100076.84;4991051;28;20498;-50
2022/06/01 04:56:12;;;;;;;5.30;3.65;;;;;;;9.31;68.92;100076.84;4989041;28;20058;-48
2022/06/01 04:58:39;;;;;;;6.03;3.72;;;;;;;9.37;68.46;100076.00;5018992;28;20533;-48
2022/06/01 05:01:07;;;;;;;6.53;2.83;;;;;;;9.43;68.75;100083.78;4991533;28;20057;-45
2022/06/01 05:03:34;;;;;;;9.30;3.80;;;;;;;9.48;69.01;100076.91;4986947;28;20061;-46
2022/06/01 05:06:00;;;;;;;5.10;3.05;;;;;;;9.56;68.49;100073.47;4997625;28;20057;-48
2022/06/01 05:08:27;;;;;;;9.50;4.28;;;;;;;9.62;69.01;100084.69;4994091;28;20046;-46
2022/06/01 05:10:54;;;;;;;7.03;3.28;;;;;;;9.70;68.98;100087.28;4993990;28;20046;-49
2022/06/01 05:13:21;;;;;;;8.43;3.67;;;;;;;9.83;69.11;100087.31;4996909;28;20104;-48
2022/06/01 05:15:51;;;;;;;5.70;3.40;;;;;;;9.96;69.34;100085.59;4990275;28;20413;-49
2022/06/01 05:18:19;;;;;;;7.72;3.80;;;;;;;10.08;68.70;100084.72;4992946;28;20069;-48
2022/06/01 05:20:46;;;;;;;5.82;3.30;;;;;;;10.19;68.96;100080.41;4996043;28;20049;-47
2022/06/01 05:23:13;;;;;;;5.53;3.25;;;;;;;10.31;68.75;100084.72;4994221;28;20046;-45
2022/06/01 05:25:42;;;;;;;5.22;2.72;;;;;;;10.42;68.75;100089.88;4982770;28;20044;-48
2022/06/01 05:28:09;;;;;;;6.30;2.97;;;;;;;10.56;69.11;100083.81;4995030;28;20120;-50
2022/06/01 05:30:36;;;;;;;6.22;2.95;;;;;;;10.70;69.29;100082.06;4989298;28;20109;-52
2022/06/01 05:33:03;;;;;;;7.55;3.38;;;;;;;10.87;68.87;100078.56;4989571;28;20057;-48
2022/06/01 05:35:30;;;;;;;7.00;3.50;;;;;;;11.08;68.99;100087.13;4992583;28;20058;-47
2022/06/01 05:37:56;;;;;;;8.57;3.53;;;;;;;11.31;69.38;100085.28;4985465;28;20506;-48
2022/06/01 05:40:25;;;;;;;7.65;3.33;;;;;;;11.56;68.76;100084.31;4988898;28;20065;-54
2022/06/01 05:42:53;;;;;;;6.30;3.38;;;;;;;11.76;68.51;100086.75;4992528;28;20050;-46
2022/06/01 05:45:19;;;;;;;6.25;3.17;;;;;;;11.95;68.59;100087.47;5015654;28;20127;-48
2022/06/01 05:47:46;;;;;;;5.30;2.90;;;;;;;12.18;68.63;100083.00;4987341;28;20112;-50
2022/06/01 05:50:13;;;;;;;5.75;3.20;;;;;;;12.39;68.15;100091.47;4993359;28;20046;-54
2022/06/01 05:52:40;;;;;;;5.30;2.83;;;;;;;12.59;67.95;100094.72;4991604;28;20477;-48
2022/06/01 05:55:24;;;;;;;8.60;3.53;;;;;;;12.79;68.17;100085.84;4991509;28;20117;-44
2022/06/01 05:57:51;;;;;;;5.00;2.55;;;;;;;12.98;68.56;100088.25;4990339;28;20042;-51
2022/06/01 06:00:18;;;;;;;5.55;2.80;;;;;;;13.16;67.83;100083.69;4993908;28;20510;-48
2022/06/01 06:02:45;;;;;;;4.90;2.65;;;;;;;13.32;68.04;100089.53;4993567;28;21972;-49
2022/06/01 06:07:59;;;;;;;4.43;2.92;;;;;;;13.53;66.04;100093.63;4995538;28;20506;-46
2022/06/01 06:10:27;;;;;;;5.90;3.05;;;;;;;13.65;66.63;100091.72;4996054;28;20046;-47
2022/06/01 06:12:54;;;;;;;7.75;3.08;;;;;;;13.70;66.19;100092.50;4995861;28;20049;-52
2022/06/01 06:15:21;;;;;;;5.68;2.47;;;;;;;13.76;66.76;100100.25;5002437;28;20050;-44
2022/06/01 06:17:53;;;;;;;5.28;2.28;;;;;;;13.85;65.90;100097.47;4996188;28;20042;-46
2022/06/01 06:20:20;;;;;;;4.90;3.00;;;;;;;13.97;65.75;100103.38;4999087;28;20050;-47
2022/06/01 06:22:47;;;;;;;5.03;2.92;;;;;;;14.10;65.72;100110.13;4989914;28;20081;-47
2022/06/01 06:25:14;;;;;;;3.67;2.38;;;;;;;14.23;65.07;100099.50;4999706;28;20103;-53
2022/06/01 06:27:40;;;;;;;3.90;2.33;;;;;;;14.33;65.17;100111.50;4997764;28;20053;-53
2022/06/01 06:30:08;;;;;;;5.13;2.25;;;;;;;14.45;64.40;100105.19;5023802;28;20104;-50
2022/06/01 06:32:34;;;;;;;7.00;2.70;;;;;;;14.57;64.05;100106.72;4987017;28;20100;-51
2022/06/01 06:35:02;;;;;;;4.45;2.92;;;;;;;14.65;63.98;100112.66;4989618;28;20050;-48
2022/06/01 06:37:28;;;;;;;6.18;3.10;;;;;;;14.78;63.89;100117.66;4993175;28;20046;-52
2022/06/01 06:39:55;;;;;;;6.00;3.05;;;;;;;14.94;63.48;100123.44;4993317;28;20074;-53
2022/06/01 06:42:22;;;;;;;5.53;2.45;;;;;;;15.06;63.15;100117.09;4984301;28;20532;-52
2022/06/01 06:44:49;;;;;;;4.60;2.83;;;;;;;15.13;62.01;100123.91;4986878;28;20052;-50
2022/06/01 06:47:16;;;;;;;6.45;2.65;;;;;;;15.24;62.15;100122.84;4987511;28;20119;-50
2022/06/01 06:49:43;;;;;;;8.35;3.20;;;;;;;15.35;61.89;100123.47;4990295;28;20842;-48
2022/06/01 06:52:11;;;;;;;6.40;2.83;;;;;;;15.51;62.07;100125.75;4984410;28;20058;-53
2022/06/01 06:54:37;;;;;;;7.60;2.40;;;;;;;15.70;61.82;100127.97;4980182;28;20057;-58
2022/06/01 06:57:04;;;;;;;4.45;2.58;;;;;;;15.91;61.09;100135.28;4989117;28;20057;-53
2022/06/01 06:59:31;;;;;;;4.63;2.85;;;;;;;16.13;60.37;100133.94;4986315;28;20138;-51
2022/06/01 07:01:58;;;;;;;5.07;2.58;;;;;;;16.36;60.71;100143.81;4988585;28;20054;-50
2022/06/01 07:04:25;;;;;;;5.03;2.13;;;;;;;16.56;59.98;100150.28;4984989;28;20046;-49
2022/06/01 07:06:52;;;;;;;6.43;2.42;;;;;;;16.74;59.09;100148.06;4999768;28;20052;-53
2022/06/01 07:09:18;;;;;;;4.97;2.47;;;;;;;16.86;58.25;100152.13;4992762;28;20057;-53
2022/06/01 07:11:45;;;;;;;5.20;3.00;;;;;;;16.93;57.10;100159.75;4991311;28;20796;-50
2022/06/01 07:14:11;;;;;;;4.68;3.25;;;;;;;17.01;57.22;100159.56;4989725;28;20077;-50
2022/06/01 07:16:38;;;;;;;6.20;3.15;;;;;;;17.22;57.16;100154.63;4995562;28;20474;-49
2022/06/01 07:19:08;;;;;;;6.32;3.05;;;;;;;17.26;56.45;100160.66;4987553;28;20093;-51
2022/06/01 07:21:36;;;;;;;;;;;;;;;17.01;56.32;100163.91;4990864;28;20052;-52
2022/06/01 07:24:05;;;;;;;7.25;3.53;;;;;;;16.91;56.55;100166.81;4995125;28;19929;-50
2022/06/01 07:26:37;;;;;;;8.55;3.92;;;;;;;16.96;56.66;100164.91;5009397;28;20050;-49
2022/06/01 07:29:05;;;;;;;8.13;4.55;;;;;;;17.09;57.07;100161.97;4993469;28;20058;-50
2022/06/01 07:31:31;;;;;;;9.30;4.50;;;;;;;17.02;56.00;100163.88;4987531;28;20043;-47
2022/06/01 07:33:59;;;;;;;12.65;4.13;;;;;;;16.99;56.57;100163.97;4998166;28;20533;-46
2022/06/01 07:36:29;;;;;;;9.73;4.13;;;;;;;17.18;56.80;100159.13;4988873;28;20058;-50
2022/06/01 07:44:53;;;;;;;8.95;3.75;;;;;;;17.86;54.68;100155.38;4990728;28;20062;-47
2022/06/01 07:47:20;;;;;;;7.93;4.00;;;;;;;18.07;54.65;100173.94;4993005;28;20045;-52
2022/06/01 07:50:08;;;;;;;7.53;3.85;;;;;;;18.30;54.46;100164.50;4987425;28;20314;-48
2022/06/01 07:52:55;;;;;;;6.10;3.40;;;;;;;18.55;53.33;100163.66;4994748;28;20066;-44
2022/06/01 07:55:22;;;;;;;6.60;3.20;;;;;;;18.75;53.16;100166.44;4992479;28;20054;-49
2022/06/01 07:57:48;;;;;;;6.32;3.35;;;;;;;18.94;52.74;100172.81;4994890;28;20047;-47
2022/06/01 08:00:15;;;;;;;5.97;3.53;;;;;;;19.05;51.92;100172.44;4992304;28;20081;-51
2022/06/01 08:02:42;;;;;;;8.43;3.50;;;;;;;19.18;51.62;100171.09;4999861;28;20050;-47
2022/06/01 08:05:13;;;;;;;6.85;3.45;;;;;;;19.23;51.47;100176.19;4995877;28;20061;-50
2022/06/01 08:07:40;;;;;;;7.18;4.03;;;;;;;19.35;51.91;100169.63;4990042;28;20065;-48
2022/06/01 08:10:08;;;;;;;10.43;4.85;;;;;;;19.54;51.11;100175.03;5000427;28;20088;-49
2022/06/01 08:15:22;;;;;;;9.77;4.60;;;;;;;19.24;50.76;100172.66;5019749;28;20109;-45
2022/06/01 08:17:54;;;;;;;9.93;5.20;;;;;;;19.22;50.40;100163.97;4988057;28;20061;-44
2022/06/01 08:20:21;;;;;;;9.90;4.40;;;;;;;19.27;50.78;100173.41;5000095;28;20045;-46
2022/06/01 08:22:48;;;;;;;9.80;4.53;;;;;;;19.40;50.73;100170.31;5001692;28;20053;-51
2022/06/01 08:25:16;;;;;;;11.32;5.28;;;;;;;19.60;50.28;100168.69;5001493;28;21093;-51
2022/06/01 08:27:44;;;;;;;7.88;4.00;;;;;;;19.72;49.59;100172.63;5023367;28;20108;-44
2022/06/01 08:30:13;;;;;;;7.30;3.22;;;;;;;19.80;49.71;100169.69;5019169;28;20061;-44
2022/06/01 08:32:40;;;;;;;7.40;4.00;;;;;;;19.93;49.31;100172.69;4985898;28;20747;-47
2022/06/01 08:35:09;;;;;;;7.22;4.40;;;;;;;20.03;49.14;100176.69;4988776;28;20054;-47
2022/06/01 08:37:36;;;;;;;6.13;3.88;;;;;;;20.13;48.53;100177.19;5010851;28;20046;-51
2022/06/01 08:40:04;;;;;;;7.40;3.88;;;;;;;20.26;48.73;100178.38;4979969;28;20132;-47
2022/06/01 08:42:32;;;;;;;3.75;2.08;;;;;;;20.41;48.00;100181.28;4977902;28;20058;-47
2022/06/01 08:45:04;;;;;;;5.57;2.72;;;;;;;20.50;46.95;100180.88;4994488;28;20505;-52
2022/06/01 08:47:33;;;;;;;4.25;2.72;;;;;;;20.61;46.59;100184.84;4987291;28;20101;-54
2022/06/01 08:50:05;;;;;;;4.03;2.38;;;;;;;20.74;46.77;100188.66;4994335;28;20115;-52
2022/06/01 08:52:32;;;;;;;2.45;1.75;;;;;;;20.88;46.44;100187.22;4984329;28;20046;-50
2022/06/01 08:54:59;;;;;;;4.20;3.13;;;;;;;21.01;45.46;100180.50;4991128;28;20058;-50
2022/06/01 08:57:29;;;;;;;4.20;2.78;;;;;;;21.21;46.65;100191.91;4990665;28;20057;-46
2022/06/01 09:00:07;;;;;;;;;;;;;;;21.42;45.98;100194.50;5013763;28;20060;-49
2022/06/01 09:07:52;;;;;;;4.78;2.22;;;;;;;21.64;45.20;100198.78;5031672;28;20406;-47
2022/06/01 09:10:59;;;;;;;3.42;2.13;;;;;;;21.80;44.38;100210.34;5000544;28;20057;-49
2022/06/01 09:13:34;;;;;;;4.88;2.67;;;;;;;22.02;44.49;100209.31;5009980;28;20119;-51
2022/06/01 09:18:51;;;;;;;6.18;3.50;;;;;;;21.82;44.08;100208.47;5106379;27;20399;-43
2022/06/01 09:24:08;;;;;;;4.00;3.50;;;;;;;21.92;43.36;100218.59;5033541;28;20049;-43
2022/06/01 09:26:47;;;;;;;5.10;3.85;;;;;;;22.05;43.94;100213.56;5036763;28;20049;-50
2022/06/01 09:29:19;;;;;;;3.88;3.47;;;;;;;22.36;43.32;100216.50;5050305;28;20045;-43
2022/06/01 09:31:48;;;;;;;4.55;3.33;;;;;;;22.65;44.21;100211.56;5050103;28;20811;-45
2022/06/01 09:37:07;;;;;;;4.65;1.90;;;;;;;22.54;42.32;100210.31;5037709;27;20394;-45
2022/06/01 09:39:37;;;;;;;3.47;2.20;;;;;;;22.50;42.77;100213.19;5025057;28;20061;-52
2022/06/01 09:44:48;;;;;;;3.17;2.67;;;;;;;22.79;42.15;100219.63;5001907;27;20403;-49
2022/06/01 09:47:27;;;;;;;2.42;1.65;;;;;;;23.04;41.02;100228.94;4977335;28;20054;-47
2022/06/01 09:49:57;;;;;;;2.50;1.20;;;;;;;23.17;40.74;100225.66;4975769;28;20058;-50
2022/06/01 09:52:40;;;;;;;2.58;1.80;;;;;;;23.05;40.79;100230.66;4971926;28;20058;-53
2022/06/01 09:55:16;;;;;;;2.83;2.17;;;;;;;22.89;40.85;100235.03;4975027;28;20065;-48
2022/06/01 09:57:43;;;;;;;2.25;1.65;;;;;;;22.54;41.25;100233.19;4992111;28;20442;-48
2022/06/01 10:08:29;;;;;;;3.58;3.28;;;;;;;21.11;42.01;100243.31;5056307;28;20102;-55
2022/06/01 10:11:09;;;;;;;4.28;3.40;;;;;;;20.96;42.67;100250.94;5064288;28;20131;-50
2022/06/01 10:13:46;;;;;;;2.13;1.58;;;;;;;20.93;43.65;100249.31;5054772;28;20415;-52
2022/06/01 10:19:00;;;;;;;3.30;1.80;;;;;;;20.93;43.27;100257.19;5027201;28;20408;-51
2022/06/01 10:21:34;;;;;;;1.30;0.80;;;;;;;20.91;43.50;100258.19;4985370;28;20112;-49
2022/06/01 10:24:13;;;;;;;1.67;1.05;;;;;;;20.80;42.50;100251.56;4983257;28;20038;-46
2022/06/01 10:26:52;;;;;;;1.67;1.48;;;;;;;20.60;42.31;100248.94;4979436;28;20062;-51
2022/06/01 10:29:29;;;;;;;4.90;1.23;;;;;;;20.51;43.01;100255.41;4991758;28;20046;-52
2022/06/01 10:32:05;;;;;;;2.90;1.50;;;;;;;20.45;43.31;100256.53;4979882;28;20057;-51
2022/06/01 10:34:41;;;;;;;3.15;1.30;;;;;;;20.39;42.99;100251.50;4982520;28;20117;-46
2022/06/01 10:39:57;;;;;;;1.85;1.33;;;;;;;20.25;43.70;100259.94;5044346;27;20446;-50
2022/06/01 10:45:13;;;;;;;3.60;1.40;;;;;;;20.12;43.70;100259.56;5115298;27;20399;-50
2022/06/01 10:50:24;;;;;;;2.50;1.58;;;;;;;20.19;44.01;100260.22;5058317;27;20881;-50
2022/06/01 10:55:34;;;;;;;3.55;2.47;;;;;;;20.17;44.06;100255.00;5032129;27;20917;-53
2022/06/01 10:58:02;;;;;;;3.50;2.90;;;;;;;20.23;44.46;100267.91;5010366;28;20060;-52
2022/06/01 11:00:39;;;;;;;4.05;2.53;;;;;;;20.31;44.46;100264.09;5013912;28;20073;-55
2022/06/01 11:06:12;;;;;;;2.85;1.60;;;;;;;20.49;44.75;100268.63;5096523;27;20903;-52
2022/06/01 11:11:47;;;;;;;2.25;1.95;;;;;;;20.99;44.06;100271.88;5046275;27;20403;-51
2022/06/01 11:28:27;;;;;;;2.92;1.33;;;;;;;21.82;42.66;100292.84;5084604;27;20396;-53
2022/06/01 11:33:41;;;;;;;2.75;2.33;;;;;;;21.82;41.83;100279.66;5039182;27;20372;-49
2022/06/01 11:39:02;;;;;;;2.03;1.23;;;;;;;21.67;41.80;100283.84;5032743;28;20406;-45
2022/06/01 11:41:34;;;;;;;2.88;1.73;;;;;;;21.72;41.95;100281.00;5019754;27;20049;-47
2022/06/01 11:44:09;;;;;;;1.98;1.17;;;;;;;21.85;41.61;100285.72;5016478;28;20751;-47
2022/06/01 11:46:43;;;;;;;4.18;1.95;;;;;;;21.82;41.03;100287.56;5013562;28;20054;-49
2022/06/01 11:49:24;;;;;;;2.67;1.40;;;;;;;21.75;41.56;100291.41;5003847;28;20046;-52
2022/06/01 11:51:50;;;;;;;3.30;1.58;;;;;;;21.68;40.58;100285.53;5012625;28;20084;-53
2022/06/01 11:54:33;;;;;;;3.55;1.63;;;;;;;21.61;40.34;100283.28;5010746;28;20100;-54
2022/06/01 11:57:16;;;;;;;2.42;2.08;;;;;;;21.70;41.22;100282.84;5048407;28;20153;-48
2022/06/01 12:00:14;;;;;;;2.63;1.65;;;;;;;21.87;41.62;100283.88;5014815;28;20052;-48
2022/06/01 12:02:41;;;;;;;2.85;1.65;;;;;;;22.01;40.53;100284.09;5013984;28;20053;-47
2022/06/01 12:05:33;;;;;;;3.13;1.70;;;;;;;22.03;41.42;100279.59;5017967;28;20049;-51
2022/06/01 12:08:19;;;;;;;2.50;1.80;;;;;;;22.29;41.65;100279.28;5030400;28;20050;-48
2022/06/01 12:11:05;;;;;;;2.97;1.73;;;;;;;22.45;40.61;100279.38;5017792;28;20111;-49
2022/06/01 12:16:24;;;;;;;2.28;1.85;;;;;;;22.12;40.05;100283.56;5033550;28;20398;-54
2022/06/01 12:19:31;;;;;;;2.40;1.65;;;;;;;22.01;40.68;100289.34;5022075;28;20058;-53
2022/06/01 12:30:21;;;;;;;4.13;3.72;;;;;;;22.15;40.43;100283.44;5073021;28;20567;-51
2022/06/01 12:41:03;;;;;;;2.85;2.00;;;;;;;22.60;40.88;100294.47;5029962;27;20408;-53
2022/06/01 12:43:31;;;;;;;3.70;2.53;;;;;;;22.51;40.09;100294.91;5011814;28;20104;-52
2022/06/01 12:45:58;;;;;;;3.30;2.35;;;;;;;22.43;40.05;100307.63;5021886;28;20045;-51
2022/06/01 12:48:24;;;;;;;3.15;2.20;;;;;;;22.34;40.11;100306.28;5023218;28;20176;-55
2022/06/01 12:50:56;;;;;;;3.40;2.25;;;;;;;22.17;40.63;100302.69;5016975;28;20054;-55
2022/06/01 12:56:08;;;;;;;5.03;2.67;;;;;;;21.94;41.46;100306.38;5012938;27;20403;-56
2022/06/01 12:58:35;;;;;;;6.78;2.17;;;;;;;21.86;41.12;100305.88;4992908;28;20501;-55
2022/06/01 13:01:03;;;;;;;12.45;2.85;;;;;;;21.79;41.38;100303.53;5005841;28;20057;-53
2022/06/01 13:03:33;;;;;;;3.83;2.38;;;;;;;21.81;41.86;100309.59;4990606;28;20117;-54
2022/06/01 13:06:07;;;;;;;4.20;2.83;;;;;;;21.91;41.11;100311.78;5003028;28;20046;-53
2022/06/01 13:08:40;;;;;;;5.22;2.75;;;;;;;21.94;41.63;100314.28;4987556;28;20077;-56
2022/06/01 13:16:47;;;;;;;2.22;1.88;;;;;;;22.02;41.90;100319.22;5055881;27;20402;-49
2022/06/01 13:24:32;;;;;;;3.92;3.25;;;;;;;21.88;40.33;100323.34;5092031;27;20399;-57
2022/06/01 13:26:59;;;;;;;3.83;3.53;;;;;;;21.75;40.42;100327.47;5033061;28;20041;-49
2022/06/01 13:32:07;;;;;;;2.72;1.50;;;;;;;21.57;40.21;100324.69;5012406;28;20419;-47
2022/06/01 13:37:23;;;;;;;1.55;1.27;;;;;;;21.55;40.95;100331.84;5034784;27;20717;-48
2022/06/01 13:42:34;;;;;;;2.72;1.10;;;;;;;21.48;41.08;100336.50;5066089;27;20390;-50
2022/06/01 13:55:34;;;;;;;4.15;1.75;;;;;;;21.09;41.22;100335.53;5036443;27;20410;-49
2022/06/01 14:11:12;;;;;;;2.97;2.00;;;;;;;20.72;41.62;100350.19;5048374;27;20400;-49
2022/06/01 14:13:41;;;;;;;3.97;1.83;;;;;;;20.50;42.41;100354.53;5047461;28;20041;-56
2022/06/01 14:16:09;;;;;;;;;;;;;;;20.09;42.82;100351.75;5063036;28;20150;-52
2022/06/01 14:18:36;;;;;;;2.20;1.63;;;;;;;20.10;43.34;100354.28;5065426;28;19936;-50
2022/06/01 14:21:03;;;;;;;4.65;1.90;;;;;;;19.96;42.87;100354.78;5063587;28;20052;-51
2022/06/01 14:23:30;;;;;;;2.05;1.52;;;;;;;19.86;43.33;100363.94;5047129;28;20194;-51
2022/06/01 14:28:49;;;;;;;2.08;1.88;;;;;;;19.55;43.77;100359.78;5049694;28;20057;-48